sensor_id;sensor_type;location;lat;lon;timestamp;P1;durP1;ratioP1;P2;durP2;ratioP2
42096;SDS011;27754;45.414;11.084;2023-04-28T00:01:40;5.43;;;2.80;;
42096;SDS011;27754;45.414;11.084;2023-04-28T00:04:07;5.38;;;3.15;;
42096;SDS011;27754;45.414;11.084;2023-04-28T00:06:34;6.10;;;2.90;;
42096;SDS011;27754;45.414;11.084;2023-04-28T00:09:02;4.97;;;2.97;;
42096;SDS011;27754;45.414;11.084;2023-04-28T00:11:29;6.10;;;3.00;;
42096;SDS011;27754;45.414;11.084;2023-04-28T00:13:56;5.00;;;3.20;;
42096;SDS011;27754;45.414;11.084;2023-04-28T00:16:23;3.35;;;2.30;;
42096;SDS011;27754;45.414;11.084;2023-04-28T00:18:50;3.85;;;2.42;;
42096;SDS011;27754;45.414;11.084;2023-04-28T00:21:17;3.65;;;2.42;;
42096;SDS011;27754;45.414;11.084;2023-04-28T00:23:44;4.18;;;2.65;;
42096;SDS011;27754;45.414;11.084;2023-04-28T00:26:11;3.97;;;2.55;;
42096;SDS011;27754;45.414;11.084;2023-04-28T00:28:40;3.63;;;2.80;;
42096;SDS011;27754;45.414;11.084;2023-04-28T00:31:11;6.03;;;2.78;;
42096;SDS011;27754;45.414;11.084;2023-04-28T00:33:39;5.03;;;3.45;;
42096;SDS011;27754;45.414;11.084;2023-04-28T00:36:06;7.47;;;3.20;;
42096;SDS011;27754;45.414;11.084;2023-04-28T00:38:35;3.75;;;2.55;;
42096;SDS011;27754;45.414;11.084;2023-04-28T00:41:02;5.20;;;2.92;;
42096;SDS011;27754;45.414;11.084;2023-04-28T00:43:30;4.35;;;3.03;;
42096;SDS011;27754;45.414;11.084;2023-04-28T00:45:56;4.95;;;3.13;;
42096;SDS011;27754;45.414;11.084;2023-04-28T00:48:24;5.82;;;2.83;;
42096;SDS011;27754;45.414;11.084;2023-04-28T00:50:51;5.63;;;3.45;;
42096;SDS011;27754;45.414;11.084;2023-04-28T00:53:18;7.82;;;3.42;;
42096;SDS011;27754;45.414;11.084;2023-04-28T00:55:45;6.63;;;4.63;;
42096;SDS011;27754;45.414;11.084;2023-04-28T00:58:13;5.20;;;3.70;;
42096;SDS011;27754;45.414;11.084;2023-04-28T01:00:40;5.10;;;3.00;;
42096;SDS011;27754;45.414;11.084;2023-04-28T01:03:07;6.20;;;3.08;;
42096;SDS011;27754;45.414;11.084;2023-04-28T01:05:34;5.00;;;3.47;;
42096;SDS011;27754;45.414;11.084;2023-04-28T01:08:02;5.60;;;3.65;;
42096;SDS011;27754;45.414;11.084;2023-04-28T01:10:30;7.53;;;4.47;;
42096;SDS011;27754;45.414;11.084;2023-04-28T01:13:02;8.50;;;3.88;;
42096;SDS011;27754;45.414;11.084;2023-04-28T01:15:30;5.55;;;3.65;;
42096;SDS011;27754;45.414;11.084;2023-04-28T01:17:57;8.13;;;3.75;;
42096;SDS011;27754;45.414;11.084;2023-04-28T01:20:24;6.78;;;4.25;;
42096;SDS011;27754;45.414;11.084;2023-04-28T01:22:51;8.77;;;4.97;;
42096;SDS011;27754;45.414;11.084;2023-04-28T01:25:18;9.25;;;4.55;;
42096;SDS011;27754;45.414;11.084;2023-04-28T01:27:46;6.72;;;4.90;;
42096;SDS011;27754;45.414;11.084;2023-04-28T01:30:13;6.90;;;4.80;;
42096;SDS011;27754;45.414;11.084;2023-04-28T01:32:40;6.68;;;4.60;;
42096;SDS011;27754;45.414;11.084;2023-04-28T01:35:07;8.02;;;4.57;;
42096;SDS011;27754;45.414;11.084;2023-04-28T01:37:35;6.13;;;4.13;;
42096;SDS011;27754;45.414;11.084;2023-04-28T01:40:02;9.23;;;5.35;;
42096;SDS011;27754;45.414;11.084;2023-04-28T01:42:29;9.05;;;5.40;;
42096;SDS011;27754;45.414;11.084;2023-04-28T01:45:00;8.95;;;4.82;;
42096;SDS011;27754;45.414;11.084;2023-04-28T01:47:28;8.60;;;4.82;;
42096;SDS011;27754;45.414;11.084;2023-04-28T01:49:55;9.80;;;5.35;;
42096;SDS011;27754;45.414;11.084;2023-04-28T01:52:22;8.13;;;5.20;;
42096;SDS011;27754;45.414;11.084;2023-04-28T01:54:50;8.60;;;5.20;;
42096;SDS011;27754;45.414;11.084;2023-04-28T01:57:17;8.25;;;4.88;;
42096;SDS011;27754;45.414;11.084;2023-04-28T01:59:47;7.22;;;4.40;;
42096;SDS011;27754;45.414;11.084;2023-04-28T02:02:15;7.95;;;4.75;;
42096;SDS011;27754;45.414;11.084;2023-04-28T02:04:42;9.73;;;5.20;;
42096;SDS011;27754;45.414;11.084;2023-04-28T02:07:09;7.18;;;4.85;;
42096;SDS011;27754;45.414;11.084;2023-04-28T02:09:36;7.72;;;4.57;;
42096;SDS011;27754;45.414;11.084;2023-04-28T02:12:03;7.88;;;4.43;;
42096;SDS011;27754;45.414;11.084;2023-04-28T02:14:30;7.40;;;5.13;;
42096;SDS011;27754;45.414;11.084;2023-04-28T02:16:57;7.82;;;4.88;;
42096;SDS011;27754;45.414;11.084;2023-04-28T02:19:24;9.65;;;4.85;;
42096;SDS011;27754;45.414;11.084;2023-04-28T02:21:52;7.72;;;4.55;;
42096;SDS011;27754;45.414;11.084;2023-04-28T02:24:18;6.13;;;3.80;;
42096;SDS011;27754;45.414;11.084;2023-04-28T02:26:46;7.07;;;3.97;;
42096;SDS011;27754;45.414;11.084;2023-04-28T02:29:13;5.97;;;3.60;;
42096;SDS011;27754;45.414;11.084;2023-04-28T02:31:40;7.07;;;3.83;;
42096;SDS011;27754;45.414;11.084;2023-04-28T02:34:07;7.07;;;4.60;;
42096;SDS011;27754;45.414;11.084;2023-04-28T02:36:34;8.15;;;4.40;;
42096;SDS011;27754;45.414;11.084;2023-04-28T02:39:01;7.05;;;4.18;;
42096;SDS011;27754;45.414;11.084;2023-04-28T02:41:28;9.77;;;4.15;;
42096;SDS011;27754;45.414;11.084;2023-04-28T02:43:56;6.38;;;4.55;;
42096;SDS011;27754;45.414;11.084;2023-04-28T02:46:23;6.38;;;4.70;;
42096;SDS011;27754;45.414;11.084;2023-04-28T02:48:50;12.00;;;4.93;;
42096;SDS011;27754;45.414;11.084;2023-04-28T02:51:17;7.40;;;4.72;;
42096;SDS011;27754;45.414;11.084;2023-04-28T02:53:44;7.90;;;5.07;;
42096;SDS011;27754;45.414;11.084;2023-04-28T02:56:11;9.82;;;5.07;;
42096;SDS011;27754;45.414;11.084;2023-04-28T02:58:38;9.00;;;5.70;;
42096;SDS011;27754;45.414;11.084;2023-04-28T03:01:05;8.15;;;5.25;;
42096;SDS011;27754;45.414;11.084;2023-04-28T03:03:33;10.43;;;5.63;;
42096;SDS011;27754;45.414;11.084;2023-04-28T03:06:00;9.70;;;5.93;;
42096;SDS011;27754;45.414;11.084;2023-04-28T03:08:27;11.25;;;6.00;;
42096;SDS011;27754;45.414;11.084;2023-04-28T03:10:54;10.43;;;5.93;;
42096;SDS011;27754;45.414;11.084;2023-04-28T03:13:21;11.30;;;6.78;;
42096;SDS011;27754;45.414;11.084;2023-04-28T03:15:49;12.40;;;6.40;;
42096;SDS011;27754;45.414;11.084;2023-04-28T03:18:16;10.00;;;6.45;;
42096;SDS011;27754;45.414;11.084;2023-04-28T03:20:44;12.30;;;7.05;;
42096;SDS011;27754;45.414;11.084;2023-04-28T03:23:10;10.52;;;6.97;;
42096;SDS011;27754;45.414;11.084;2023-04-28T03:25:37;10.38;;;7.50;;
42096;SDS011;27754;45.414;11.084;2023-04-28T03:28:04;12.43;;;6.50;;
42096;SDS011;27754;45.414;11.084;2023-04-28T03:30:31;8.93;;;6.15;;
42096;SDS011;27754;45.414;11.084;2023-04-28T03:32:58;14.52;;;6.85;;
42096;SDS011;27754;45.414;11.084;2023-04-28T03:35:25;13.07;;;6.57;;
42096;SDS011;27754;45.414;11.084;2023-04-28T03:37:53;9.20;;;6.25;;
42096;SDS011;27754;45.414;11.084;2023-04-28T03:40:19;8.98;;;6.03;;
42096;SDS011;27754;45.414;11.084;2023-04-28T03:43:00;10.13;;;6.13;;
42096;SDS011;27754;45.414;11.084;2023-04-28T03:45:34;8.98;;;5.82;;
42096;SDS011;27754;45.414;11.084;2023-04-28T03:48:01;15.38;;;6.88;;
42096;SDS011;27754;45.414;11.084;2023-04-28T03:50:28;11.73;;;6.72;;
42096;SDS011;27754;45.414;11.084;2023-04-28T03:52:55;14.02;;;6.30;;
42096;SDS011;27754;45.414;11.084;2023-04-28T03:55:23;9.75;;;5.72;;
42096;SDS011;27754;45.414;11.084;2023-04-28T03:57:51;11.90;;;6.00;;
42096;SDS011;27754;45.414;11.084;2023-04-28T04:00:18;10.52;;;5.82;;
42096;SDS011;27754;45.414;11.084;2023-04-28T04:02:47;9.73;;;6.30;;
42096;SDS011;27754;45.414;11.084;2023-04-28T04:05:14;10.27;;;5.85;;
42096;SDS011;27754;45.414;11.084;2023-04-28T04:07:42;9.30;;;4.95;;
42096;SDS011;27754;45.414;11.084;2023-04-28T04:10:09;10.18;;;5.90;;
42096;SDS011;27754;45.414;11.084;2023-04-28T04:12:39;10.73;;;6.10;;
42096;SDS011;27754;45.414;11.084;2023-04-28T04:15:06;12.73;;;7.28;;
42096;SDS011;27754;45.414;11.084;2023-04-28T04:17:34;10.82;;;6.68;;
42096;SDS011;27754;45.414;11.084;2023-04-28T04:20:01;11.40;;;7.20;;
42096;SDS011;27754;45.414;11.084;2023-04-28T04:22:27;11.95;;;7.13;;
42096;SDS011;27754;45.414;11.084;2023-04-28T04:24:54;15.52;;;6.45;;
42096;SDS011;27754;45.414;11.084;2023-04-28T04:27:21;12.77;;;7.30;;
42096;SDS011;27754;45.414;11.084;2023-04-28T04:29:48;13.75;;;7.15;;
42096;SDS011;27754;45.414;11.084;2023-04-28T04:32:15;10.85;;;7.30;;
42096;SDS011;27754;45.414;11.084;2023-04-28T04:34:42;8.70;;;6.28;;
42096;SDS011;27754;45.414;11.084;2023-04-28T04:37:10;12.00;;;6.68;;
42096;SDS011;27754;45.414;11.084;2023-04-28T04:39:46;13.48;;;7.03;;
42096;SDS011;27754;45.414;11.084;2023-04-28T04:42:14;9.80;;;6.35;;
42096;SDS011;27754;45.414;11.084;2023-04-28T04:45:14;11.00;;;5.97;;
42096;SDS011;27754;45.414;11.084;2023-04-28T04:47:41;9.55;;;6.43;;
42096;SDS011;27754;45.414;11.084;2023-04-28T04:50:09;10.40;;;6.30;;
42096;SDS011;27754;45.414;11.084;2023-04-28T04:52:37;11.52;;;6.35;;
42096;SDS011;27754;45.414;11.084;2023-04-28T04:55:04;11.82;;;6.93;;
42096;SDS011;27754;45.414;11.084;2023-04-28T04:57:32;10.35;;;6.53;;
42096;SDS011;27754;45.414;11.084;2023-04-28T04:59:59;10.45;;;6.30;;
42096;SDS011;27754;45.414;11.084;2023-04-28T05:02:26;12.88;;;6.50;;
42096;SDS011;27754;45.414;11.084;2023-04-28T05:04:53;13.55;;;6.78;;
42096;SDS011;27754;45.414;11.084;2023-04-28T05:07:34;26.52;;;7.88;;
42096;SDS011;27754;45.414;11.084;2023-04-28T05:10:01;21.25;;;7.22;;
42096;SDS011;27754;45.414;11.084;2023-04-28T05:12:29;27.75;;;7.40;;
42096;SDS011;27754;45.414;11.084;2023-04-28T05:14:56;13.77;;;7.30;;
42096;SDS011;27754;45.414;11.084;2023-04-28T05:17:23;16.45;;;7.68;;
42096;SDS011;27754;45.414;11.084;2023-04-28T05:19:50;10.73;;;6.70;;
42096;SDS011;27754;45.414;11.084;2023-04-28T05:22:17;12.98;;;6.97;;
42096;SDS011;27754;45.414;11.084;2023-04-28T05:24:44;13.13;;;7.18;;
42096;SDS011;27754;45.414;11.084;2023-04-28T05:27:11;11.82;;;7.00;;
42096;SDS011;27754;45.414;11.084;2023-04-28T05:29:38;11.95;;;7.20;;
42096;SDS011;27754;45.414;11.084;2023-04-28T05:32:05;13.90;;;7.45;;
42096;SDS011;27754;45.414;11.084;2023-04-28T05:34:32;11.07;;;6.97;;
42096;SDS011;27754;45.414;11.084;2023-04-28T05:36:59;11.75;;;7.78;;
42096;SDS011;27754;45.414;11.084;2023-04-28T05:39:28;12.02;;;7.38;;
42096;SDS011;27754;45.414;11.084;2023-04-28T05:41:59;13.40;;;7.50;;
42096;SDS011;27754;45.414;11.084;2023-04-28T05:44:26;22.35;;;7.95;;
42096;SDS011;27754;45.414;11.084;2023-04-28T05:46:53;15.40;;;7.85;;
42096;SDS011;27754;45.414;11.084;2023-04-28T05:49:24;15.68;;;7.72;;
42096;SDS011;27754;45.414;11.084;2023-04-28T05:51:51;14.35;;;7.68;;
42096;SDS011;27754;45.414;11.084;2023-04-28T05:54:19;14.18;;;8.02;;
42096;SDS011;27754;45.414;11.084;2023-04-28T05:56:48;14.82;;;7.10;;
42096;SDS011;27754;45.414;11.084;2023-04-28T05:59:16;20.65;;;7.80;;
42096;SDS011;27754;45.414;11.084;2023-04-28T06:01:44;22.80;;;8.18;;
42096;SDS011;27754;45.414;11.084;2023-04-28T06:04:11;15.15;;;7.45;;
42096;SDS011;27754;45.414;11.084;2023-04-28T06:06:38;17.20;;;8.10;;
42096;SDS011;27754;45.414;11.084;2023-04-28T06:09:05;19.50;;;6.78;;
42096;SDS011;27754;45.414;11.084;2023-04-28T06:11:32;27.05;;;8.18;;
42096;SDS011;27754;45.414;11.084;2023-04-28T06:13:59;16.60;;;8.70;;
42096;SDS011;27754;45.414;11.084;2023-04-28T06:16:27;19.40;;;7.80;;
42096;SDS011;27754;45.414;11.084;2023-04-28T06:18:54;15.48;;;8.30;;
42096;SDS011;27754;45.414;11.084;2023-04-28T06:21:21;17.33;;;7.88;;
42096;SDS011;27754;45.414;11.084;2023-04-28T06:23:50;23.80;;;8.60;;
42096;SDS011;27754;45.414;11.084;2023-04-28T06:26:17;24.17;;;9.27;;
42096;SDS011;27754;45.414;11.084;2023-04-28T06:28:44;21.45;;;8.88;;
42096;SDS011;27754;45.414;11.084;2023-04-28T06:31:11;19.02;;;8.48;;
42096;SDS011;27754;45.414;11.084;2023-04-28T06:33:38;18.63;;;9.10;;
42096;SDS011;27754;45.414;11.084;2023-04-28T06:36:05;20.15;;;8.35;;
42096;SDS011;27754;45.414;11.084;2023-04-28T06:38:33;20.48;;;8.30;;
42096;SDS011;27754;45.414;11.084;2023-04-28T06:41:00;19.27;;;7.50;;
42096;SDS011;27754;45.414;11.084;2023-04-28T06:43:28;17.58;;;7.93;;
42096;SDS011;27754;45.414;11.084;2023-04-28T06:46:04;19.30;;;7.85;;
42096;SDS011;27754;45.414;11.084;2023-04-28T06:48:31;13.07;;;7.13;;
42096;SDS011;27754;45.414;11.084;2023-04-28T06:50:58;16.55;;;7.38;;
42096;SDS011;27754;45.414;11.084;2023-04-28T06:53:25;15.25;;;7.60;;
42096;SDS011;27754;45.414;11.084;2023-04-28T06:55:52;17.70;;;7.63;;
42096;SDS011;27754;45.414;11.084;2023-04-28T06:58:19;13.52;;;7.25;;
42096;SDS011;27754;45.414;11.084;2023-04-28T07:00:46;13.52;;;7.45;;
42096;SDS011;27754;45.414;11.084;2023-04-28T07:03:13;11.55;;;6.85;;
42096;SDS011;27754;45.414;11.084;2023-04-28T07:05:40;13.07;;;6.63;;
42096;SDS011;27754;45.414;11.084;2023-04-28T07:08:07;13.05;;;6.43;;
42096;SDS011;27754;45.414;11.084;2023-04-28T07:10:35;11.13;;;6.57;;
42096;SDS011;27754;45.414;11.084;2023-04-28T07:13:02;12.45;;;6.03;;
42096;SDS011;27754;45.414;11.084;2023-04-28T07:15:29;12.00;;;5.18;;
42096;SDS011;27754;45.414;11.084;2023-04-28T07:17:56;13.73;;;5.95;;
42096;SDS011;27754;45.414;11.084;2023-04-28T07:20:23;12.57;;;5.30;;
42096;SDS011;27754;45.414;11.084;2023-04-28T07:22:50;9.90;;;4.30;;
42096;SDS011;27754;45.414;11.084;2023-04-28T07:25:17;9.02;;;4.60;;
42096;SDS011;27754;45.414;11.084;2023-04-28T07:27:44;10.73;;;5.07;;
42096;SDS011;27754;45.414;11.084;2023-04-28T07:30:12;8.32;;;5.10;;
42096;SDS011;27754;45.414;11.084;2023-04-28T07:32:53;8.00;;;4.78;;
42096;SDS011;27754;45.414;11.084;2023-04-28T07:35:20;12.77;;;5.18;;
42096;SDS011;27754;45.414;11.084;2023-04-28T07:37:48;10.20;;;4.70;;
42096;SDS011;27754;45.414;11.084;2023-04-28T07:40:15;7.95;;;4.80;;
42096;SDS011;27754;45.414;11.084;2023-04-28T07:42:42;7.68;;;4.43;;
42096;SDS011;27754;45.414;11.084;2023-04-28T07:45:09;9.00;;;4.70;;
42096;SDS011;27754;45.414;11.084;2023-04-28T07:47:36;9.45;;;4.30;;
42096;SDS011;27754;45.414;11.084;2023-04-28T07:50:04;8.27;;;5.18;;
42096;SDS011;27754;45.414;11.084;2023-04-28T07:52:32;10.05;;;5.45;;
42096;SDS011;27754;45.414;11.084;2023-04-28T07:54:59;11.43;;;6.13;;
42096;SDS011;27754;45.414;11.084;2023-04-28T07:57:28;11.85;;;5.68;;
42096;SDS011;27754;45.414;11.084;2023-04-28T07:59:56;10.02;;;5.68;;
42096;SDS011;27754;45.414;11.084;2023-04-28T08:02:22;9.73;;;5.32;;
42096;SDS011;27754;45.414;11.084;2023-04-28T08:04:51;11.05;;;5.80;;
42096;SDS011;27754;45.414;11.084;2023-04-28T08:07:18;12.88;;;5.35;;
42096;SDS011;27754;45.414;11.084;2023-04-28T08:09:45;9.07;;;4.72;;
42096;SDS011;27754;45.414;11.084;2023-04-28T08:12:13;8.85;;;4.93;;
42096;SDS011;27754;45.414;11.084;2023-04-28T08:14:41;9.25;;;4.80;;
42096;SDS011;27754;45.414;11.084;2023-04-28T08:17:08;10.30;;;4.90;;
42096;SDS011;27754;45.414;11.084;2023-04-28T08:19:35;10.70;;;5.65;;
42096;SDS011;27754;45.414;11.084;2023-04-28T08:22:02;8.75;;;4.82;;
42096;SDS011;27754;45.414;11.084;2023-04-28T08:24:32;9.32;;;5.55;;
42096;SDS011;27754;45.414;11.084;2023-04-28T08:27:02;10.98;;;4.90;;
42096;SDS011;27754;45.414;11.084;2023-04-28T08:29:29;8.32;;;4.85;;
42096;SDS011;27754;45.414;11.084;2023-04-28T08:31:57;8.02;;;4.18;;
42096;SDS011;27754;45.414;11.084;2023-04-28T08:34:24;5.47;;;4.05;;
42096;SDS011;27754;45.414;11.084;2023-04-28T08:36:51;4.50;;;3.80;;
42096;SDS011;27754;45.414;11.084;2023-04-28T08:39:18;7.40;;;3.05;;
42096;SDS011;27754;45.414;11.084;2023-04-28T08:41:47;6.72;;;3.30;;
42096;SDS011;27754;45.414;11.084;2023-04-28T08:44:14;6.15;;;3.55;;
42096;SDS011;27754;45.414;11.084;2023-04-28T08:46:43;7.40;;;3.65;;
42096;SDS011;27754;45.414;11.084;2023-04-28T08:49:12;7.18;;;3.45;;
42096;SDS011;27754;45.414;11.084;2023-04-28T08:51:45;6.65;;;3.15;;
42096;SDS011;27754;45.414;11.084;2023-04-28T08:54:16;6.15;;;2.65;;
42096;SDS011;27754;45.414;11.084;2023-04-28T08:56:52;7.57;;;3.22;;
42096;SDS011;27754;45.414;11.084;2023-04-28T08:59:20;6.82;;;2.55;;
42096;SDS011;27754;45.414;11.084;2023-04-28T09:01:48;6.07;;;2.25;;
42096;SDS011;27754;45.414;11.084;2023-04-28T09:04:18;3.03;;;1.80;;
42096;SDS011;27754;45.414;11.084;2023-04-28T09:06:47;4.55;;;2.10;;
42096;SDS011;27754;45.414;11.084;2023-04-28T09:09:17;6.32;;;2.05;;
42096;SDS011;27754;45.414;11.084;2023-04-28T09:11:55;4.30;;;2.15;;
42096;SDS011;27754;45.414;11.084;2023-04-28T09:14:28;7.97;;;2.65;;
42096;SDS011;27754;45.414;11.084;2023-04-28T09:16:56;10.88;;;2.63;;
42096;SDS011;27754;45.414;11.084;2023-04-28T09:19:24;7.20;;;2.40;;
42096;SDS011;27754;45.414;11.084;2023-04-28T09:22:01;5.05;;;2.10;;
42096;SDS011;27754;45.414;11.084;2023-04-28T09:24:43;9.18;;;2.30;;
42096;SDS011;27754;45.414;11.084;2023-04-28T09:27:10;7.15;;;2.30;;
42096;SDS011;27754;45.414;11.084;2023-04-28T09:29:37;5.30;;;2.45;;
42096;SDS011;27754;45.414;11.084;2023-04-28T09:32:14;6.32;;;2.90;;
42096;SDS011;27754;45.414;11.084;2023-04-28T09:34:47;6.88;;;3.10;;
42096;SDS011;27754;45.414;11.084;2023-04-28T09:37:15;7.03;;;3.65;;
42096;SDS011;27754;45.414;11.084;2023-04-28T09:39:48;12.18;;;3.50;;
42096;SDS011;27754;45.414;11.084;2023-04-28T09:42:36;4.68;;;3.10;;
42096;SDS011;27754;45.414;11.084;2023-04-28T09:45:08;6.78;;;3.13;;
42096;SDS011;27754;45.414;11.084;2023-04-28T09:47:37;6.70;;;2.08;;
42096;SDS011;27754;45.414;11.084;2023-04-28T09:50:13;5.15;;;2.15;;
42096;SDS011;27754;45.414;11.084;2023-04-28T09:52:43;4.32;;;2.42;;
42096;SDS011;27754;45.414;11.084;2023-04-28T09:55:14;6.53;;;2.72;;
42096;SDS011;27754;45.414;11.084;2023-04-28T09:57:41;5.22;;;2.83;;
42096;SDS011;27754;45.414;11.084;2023-04-28T10:00:13;3.83;;;2.10;;
42096;SDS011;27754;45.414;11.084;2023-04-28T10:02:42;5.70;;;2.15;;
42096;SDS011;27754;45.414;11.084;2023-04-28T10:05:10;3.78;;;2.13;;
42096;SDS011;27754;45.414;11.084;2023-04-28T10:07:38;3.20;;;1.77;;
42096;SDS011;27754;45.414;11.084;2023-04-28T10:10:06;4.10;;;1.70;;
42096;SDS011;27754;45.414;11.084;2023-04-28T10:12:34;6.75;;;1.40;;
42096;SDS011;27754;45.414;11.084;2023-04-28T10:15:04;3.42;;;1.77;;
42096;SDS011;27754;45.414;11.084;2023-04-28T10:17:32;3.22;;;1.98;;
42096;SDS011;27754;45.414;11.084;2023-04-28T10:20:02;4.72;;;2.17;;
42096;SDS011;27754;45.414;11.084;2023-04-28T10:22:38;4.43;;;1.88;;
42096;SDS011;27754;45.414;11.084;2023-04-28T10:27:41;5.40;;;2.30;;
42096;SDS011;27754;45.414;11.084;2023-04-28T10:30:13;2.72;;;1.80;;
42096;SDS011;27754;45.414;11.084;2023-04-28T10:32:45;5.40;;;1.98;;
42096;SDS011;27754;45.414;11.084;2023-04-28T10:38:06;3.80;;;1.73;;
42096;SDS011;27754;45.414;11.084;2023-04-28T10:40:50;2.10;;;1.33;;
42096;SDS011;27754;45.414;11.084;2023-04-28T10:56:15;4.55;;;2.05;;
42096;SDS011;27754;45.414;11.084;2023-04-28T10:58:47;3.92;;;2.30;;
42096;SDS011;27754;45.414;11.084;2023-04-28T11:03:53;3.95;;;2.40;;
42096;SDS011;27754;45.414;11.084;2023-04-28T11:06:31;4.63;;;2.42;;
42096;SDS011;27754;45.414;11.084;2023-04-28T11:16:59;4.45;;;2.50;;
42096;SDS011;27754;45.414;11.084;2023-04-28T11:19:37;4.32;;;2.70;;
42096;SDS011;27754;45.414;11.084;2023-04-28T11:22:13;4.18;;;3.00;;
42096;SDS011;27754;45.414;11.084;2023-04-28T11:27:26;6.85;;;3.40;;
42096;SDS011;27754;45.414;11.084;2023-04-28T11:29:54;5.28;;;3.13;;
42096;SDS011;27754;45.414;11.084;2023-04-28T11:32:31;6.63;;;3.45;;
42096;SDS011;27754;45.414;11.084;2023-04-28T11:34:59;5.75;;;3.25;;
42096;SDS011;27754;45.414;11.084;2023-04-28T11:37:26;5.22;;;2.25;;
42096;SDS011;27754;45.414;11.084;2023-04-28T11:39:53;4.85;;;2.55;;
42096;SDS011;27754;45.414;11.084;2023-04-28T11:42:20;4.32;;;3.28;;
42096;SDS011;27754;45.414;11.084;2023-04-28T11:44:50;4.95;;;3.60;;
42096;SDS011;27754;45.414;11.084;2023-04-28T11:47:31;5.15;;;3.03;;
42096;SDS011;27754;45.414;11.084;2023-04-28T11:49:59;5.28;;;3.22;;
42096;SDS011;27754;45.414;11.084;2023-04-28T11:52:27;6.25;;;3.63;;
42096;SDS011;27754;45.414;11.084;2023-04-28T11:54:55;7.13;;;4.55;;
42096;SDS011;27754;45.414;11.084;2023-04-28T11:57:24;6.88;;;4.53;;
42096;SDS011;27754;45.414;11.084;2023-04-28T11:59:52;7.55;;;4.57;;
42096;SDS011;27754;45.414;11.084;2023-04-28T12:02:25;6.40;;;4.63;;
42096;SDS011;27754;45.414;11.084;2023-04-28T12:04:54;8.88;;;4.50;;
42096;SDS011;27754;45.414;11.084;2023-04-28T12:07:21;7.72;;;4.70;;
42096;SDS011;27754;45.414;11.084;2023-04-28T12:12:39;8.57;;;4.80;;
42096;SDS011;27754;45.414;11.084;2023-04-28T12:15:17;9.23;;;5.22;;
42096;SDS011;27754;45.414;11.084;2023-04-28T12:17:46;9.50;;;5.28;;
42096;SDS011;27754;45.414;11.084;2023-04-28T12:20:36;6.82;;;5.50;;
42096;SDS011;27754;45.414;11.084;2023-04-28T12:23:04;8.70;;;4.55;;
42096;SDS011;27754;45.414;11.084;2023-04-28T12:25:41;7.30;;;5.50;;
42096;SDS011;27754;45.414;11.084;2023-04-28T12:28:09;6.75;;;4.40;;
42096;SDS011;27754;45.414;11.084;2023-04-28T12:30:36;7.93;;;4.43;;
42096;SDS011;27754;45.414;11.084;2023-04-28T12:33:25;5.68;;;4.45;;
42096;SDS011;27754;45.414;11.084;2023-04-28T12:35:57;6.10;;;4.18;;
42096;SDS011;27754;45.414;11.084;2023-04-28T12:38:25;6.10;;;4.57;;
42096;SDS011;27754;45.414;11.084;2023-04-28T12:40:53;7.18;;;4.80;;
42096;SDS011;27754;45.414;11.084;2023-04-28T12:43:20;6.55;;;3.92;;
42096;SDS011;27754;45.414;11.084;2023-04-28T12:45:49;4.93;;;4.18;;
42096;SDS011;27754;45.414;11.084;2023-04-28T12:48:19;10.75;;;4.03;;
42096;SDS011;27754;45.414;11.084;2023-04-28T12:50:46;6.03;;;3.67;;
42096;SDS011;27754;45.414;11.084;2023-04-28T12:53:13;5.93;;;4.38;;
42096;SDS011;27754;45.414;11.084;2023-04-28T12:55:40;5.97;;;3.72;;
42096;SDS011;27754;45.414;11.084;2023-04-28T12:58:07;5.30;;;4.00;;
42096;SDS011;27754;45.414;11.084;2023-04-28T13:00:34;6.05;;;4.07;;
42096;SDS011;27754;45.414;11.084;2023-04-28T13:03:01;5.13;;;4.07;;
42096;SDS011;27754;45.414;11.084;2023-04-28T13:05:28;6.40;;;3.88;;
42096;SDS011;27754;45.414;11.084;2023-04-28T13:07:56;5.65;;;4.25;;
42096;SDS011;27754;45.414;11.084;2023-04-28T13:10:23;5.82;;;4.03;;
42096;SDS011;27754;45.414;11.084;2023-04-28T13:12:51;6.57;;;4.68;;
42096;SDS011;27754;45.414;11.084;2023-04-28T13:15:18;6.07;;;4.53;;
42096;SDS011;27754;45.414;11.084;2023-04-28T13:17:46;7.40;;;4.85;;
42096;SDS011;27754;45.414;11.084;2023-04-28T13:20:13;6.40;;;4.85;;
42096;SDS011;27754;45.414;11.084;2023-04-28T13:22:41;8.50;;;4.82;;
42096;SDS011;27754;45.414;11.084;2023-04-28T13:25:08;9.15;;;5.63;;
42096;SDS011;27754;45.414;11.084;2023-04-28T13:27:35;9.88;;;6.28;;
42096;SDS011;27754;45.414;11.084;2023-04-28T13:30:03;8.65;;;5.90;;
42096;SDS011;27754;45.414;11.084;2023-04-28T13:32:30;8.40;;;5.78;;
42096;SDS011;27754;45.414;11.084;2023-04-28T13:34:58;8.75;;;6.50;;
42096;SDS011;27754;45.414;11.084;2023-04-28T13:37:25;10.70;;;7.10;;
42096;SDS011;27754;45.414;11.084;2023-04-28T13:39:53;9.48;;;6.75;;
42096;SDS011;27754;45.414;11.084;2023-04-28T13:42:20;11.27;;;8.13;;
42096;SDS011;27754;45.414;11.084;2023-04-28T13:44:46;9.63;;;7.57;;
42096;SDS011;27754;45.414;11.084;2023-04-28T13:47:14;11.88;;;8.05;;
42096;SDS011;27754;45.414;11.084;2023-04-28T13:49:41;11.23;;;8.02;;
42096;SDS011;27754;45.414;11.084;2023-04-28T13:52:08;13.35;;;8.30;;
42096;SDS011;27754;45.414;11.084;2023-04-28T13:54:35;14.15;;;8.85;;
42096;SDS011;27754;45.414;11.084;2023-04-28T13:57:02;11.15;;;8.40;;
42096;SDS011;27754;45.414;11.084;2023-04-28T13:59:29;13.15;;;8.27;;
42096;SDS011;27754;45.414;11.084;2023-04-28T14:01:56;11.75;;;8.68;;
42096;SDS011;27754;45.414;11.084;2023-04-28T14:04:23;13.45;;;10.00;;
42096;SDS011;27754;45.414;11.084;2023-04-28T14:06:51;12.73;;;8.85;;
42096;SDS011;27754;45.414;11.084;2023-04-28T14:09:17;13.13;;;8.98;;
42096;SDS011;27754;45.414;11.084;2023-04-28T14:11:44;16.40;;;10.05;;
42096;SDS011;27754;45.414;11.084;2023-04-28T14:14:11;13.65;;;9.02;;
42096;SDS011;27754;45.414;11.084;2023-04-28T14:16:38;19.40;;;10.60;;
42096;SDS011;27754;45.414;11.084;2023-04-28T14:19:05;17.63;;;9.93;;
42096;SDS011;27754;45.414;11.084;2023-04-28T14:21:32;18.00;;;9.88;;
42096;SDS011;27754;45.414;11.084;2023-04-28T14:23:59;14.52;;;9.80;;
42096;SDS011;27754;45.414;11.084;2023-04-28T14:26:26;18.40;;;11.10;;
42096;SDS011;27754;45.414;11.084;2023-04-28T14:28:53;17.05;;;10.60;;
42096;SDS011;27754;45.414;11.084;2023-04-28T14:31:20;17.60;;;10.50;;
42096;SDS011;27754;45.414;11.084;2023-04-28T14:33:47;17.20;;;9.80;;
42096;SDS011;27754;45.414;11.084;2023-04-28T14:36:14;16.27;;;10.02;;
42096;SDS011;27754;45.414;11.084;2023-04-28T14:38:41;19.13;;;10.52;;
42096;SDS011;27754;45.414;11.084;2023-04-28T14:41:08;18.88;;;11.82;;
42096;SDS011;27754;45.414;11.084;2023-04-28T14:43:36;19.52;;;10.88;;
42096;SDS011;27754;45.414;11.084;2023-04-28T14:46:03;19.13;;;11.23;;
42096;SDS011;27754;45.414;11.084;2023-04-28T14:48:31;21.00;;;10.88;;
42096;SDS011;27754;45.414;11.084;2023-04-28T14:50:58;17.95;;;11.18;;
42096;SDS011;27754;45.414;11.084;2023-04-28T14:53:25;22.52;;;10.70;;
42096;SDS011;27754;45.414;11.084;2023-04-28T14:55:52;19.48;;;11.25;;
42096;SDS011;27754;45.414;11.084;2023-04-28T14:58:22;17.40;;;10.88;;
42096;SDS011;27754;45.414;11.084;2023-04-28T15:00:49;19.63;;;11.88;;
42096;SDS011;27754;45.414;11.084;2023-04-28T15:03:18;20.08;;;12.00;;
42096;SDS011;27754;45.414;11.084;2023-04-28T15:05:45;19.55;;;11.70;;
42096;SDS011;27754;45.414;11.084;2023-04-28T15:08:12;19.95;;;12.00;;
42096;SDS011;27754;45.414;11.084;2023-04-28T15:10:40;21.23;;;12.13;;